sensor_id;sensor_type;location;lat;lon;timestamp;temperature;humidity
19555;DHT22;9924;50.828;6.440;2023-03-01T00:02:05;-1.60;99.90
19555;DHT22;9924;50.828;6.440;2023-03-01T00:04:50;-1.50;99.90
19555;DHT22;9924;50.828;6.440;2023-03-01T00:07:35;-1.60;99.90
19555;DHT22;9924;50.828;6.440;2023-03-01T00:10:19;-1.80;99.90
19555;DHT22;9924;50.828;6.440;2023-03-01T00:13:04;-1.90;99.90
19555;DHT22;9924;50.828;6.440;2023-03-01T00:15:49;-2.00;99.90
19555;DHT22;9924;50.828;6.440;2023-03-01T00:18:33;-2.10;99.90
19555;DHT22;9924;50.828;6.440;2023-03-01T00:21:20;-2.10;99.90
19555;DHT22;9924;50.828;6.440;2023-03-01T00:24:06;-2.10;99.90
19555;DHT22;9924;50.828;6.440;2023-03-01T00:26:55;-2.00;99.90
19555;DHT22;9924;50.828;6.440;2023-03-01T00:29:40;-2.00;99.90
19555;DHT22;9924;50.828;6.440;2023-03-01T00:32:24;-2.00;99.90
19555;DHT22;9924;50.828;6.440;2023-03-01T00:35:09;-2.00;99.90
19555;DHT22;9924;50.828;6.440;2023-03-01T00:37:53;-2.10;99.90
19555;DHT22;9924;50.828;6.440;2023-03-01T00:40:42;-2.10;99.90
19555;DHT22;9924;50.828;6.440;2023-03-01T00:43:26;-2.10;99.90
19555;DHT22;9924;50.828;6.440;2023-03-01T00:46:16;-2.20;99.90
19555;DHT22;9924;50.828;6.440;2023-03-01T00:49:01;-2.10;99.90
19555;DHT22;9924;50.828;6.440;2023-03-01T00:51:46;-2.10;99.90
19555;DHT22;9924;50.828;6.440;2023-03-01T00:54:32;-2.10;99.90
19555;DHT22;9924;50.828;6.440;2023-03-01T00:57:16;-2.20;99.90
19555;DHT22;9924;50.828;6.440;2023-03-01T01:00:01;-2.20;99.90
19555;DHT22;9924;50.828;6.440;2023-03-01T01:02:47;-2.20;99.90
19555;DHT22;9924;50.828;6.440;2023-03-01T01:05:34;-2.30;99.90
19555;DHT22;9924;50.828;6.440;2023-03-01T01:08:20;-2.30;99.90
19555;DHT22;9924;50.828;6.440;2023-03-01T01:11:04;-2.20;99.90
19555;DHT22;9924;50.828;6.440;2023-03-01T01:13:49;-2.30;99.90
19555;DHT22;9924;50.828;6.440;2023-03-01T01:16:34;-2.30;99.90
19555;DHT22;9924;50.828;6.440;2023-03-01T01:19:18;-2.40;99.90
19555;DHT22;9924;50.828;6.440;2023-03-01T01:22:03;-2.40;99.90
19555;DHT22;9924;50.828;6.440;2023-03-01T01:24:47;-2.50;99.90
19555;DHT22;9924;50.828;6.440;2023-03-01T01:27:32;-2.60;99.90
19555;DHT22;9924;50.828;6.440;2023-03-01T01:30:16;-2.70;99.90
19555;DHT22;9924;50.828;6.440;2023-03-01T01:33:01;-2.70;99.90
19555;DHT22;9924;50.828;6.440;2023-03-01T01:35:45;-2.80;99.90
19555;DHT22;9924;50.828;6.440;2023-03-01T01:38:30;-2.90;99.90
19555;DHT22;9924;50.828;6.440;2023-03-01T01:41:15;-3.00;99.90
19555;DHT22;9924;50.828;6.440;2023-03-01T01:47:04;-3.10;99.90
19555;DHT22;9924;50.828;6.440;2023-03-01T01:49:51;-3.10;99.90
19555;DHT22;9924;50.828;6.440;2023-03-01T01:52:37;-3.20;99.90
19555;DHT22;9924;50.828;6.440;2023-03-01T01:55:26;-3.20;99.90
19555;DHT22;9924;50.828;6.440;2023-03-01T01:58:13;-3.20;99.90
19555;DHT22;9924;50.828;6.440;2023-03-01T02:01:00;-3.30;99.90
19555;DHT22;9924;50.828;6.440;2023-03-01T02:03:46;-3.30;99.90
19555;DHT22;9924;50.828;6.440;2023-03-01T02:06:43;-3.30;99.90
19555;DHT22;9924;50.828;6.440;2023-03-01T02:09:32;-3.30;99.90
19555;DHT22;9924;50.828;6.440;2023-03-01T02:12:20;-3.30;99.90
19555;DHT22;9924;50.828;6.440;2023-03-01T02:15:05;-3.30;99.90
19555;DHT22;9924;50.828;6.440;2023-03-01T02:17:50;-3.30;99.90
19555;DHT22;9924;50.828;6.440;2023-03-01T02:20:39;-3.30;99.90
19555;DHT22;9924;50.828;6.440;2023-03-01T02:23:25;-3.20;99.90
19555;DHT22;9924;50.828;6.440;2023-03-01T02:29:06;-3.30;99.90
19555;DHT22;9924;50.828;6.440;2023-03-01T02:31:52;-3.30;99.90
19555;DHT22;9924;50.828;6.440;2023-03-01T02:34:40;-3.30;99.90
19555;DHT22;9924;50.828;6.440;2023-03-01T02:37:26;-3.40;99.90
19555;DHT22;9924;50.828;6.440;2023-03-01T02:40:14;-3.40;99.90
19555;DHT22;9924;50.828;6.440;2023-03-01T02:43:01;-3.50;99.90
19555;DHT22;9924;50.828;6.440;2023-03-01T02:45:49;-3.60;99.90
19555;DHT22;9924;50.828;6.440;2023-03-01T02:48:47;-3.70;99.90
19555;DHT22;9924;50.828;6.440;2023-03-01T02:52:01;-3.70;99.90
19555;DHT22;9924;50.828;6.440;2023-03-01T02:55:03;-3.80;99.90
19555;DHT22;9924;50.828;6.440;2023-03-01T02:57:48;-3.80;99.90
19555;DHT22;9924;50.828;6.440;2023-03-01T03:00:38;-3.80;99.90
19555;DHT22;9924;50.828;6.440;2023-03-01T03:03:27;-3.80;99.90
19555;DHT22;9924;50.828;6.440;2023-03-01T03:06:12;-3.80;99.90
19555;DHT22;9924;50.828;6.440;2023-03-01T03:08:56;-3.90;99.90
19555;DHT22;9924;50.828;6.440;2023-03-01T03:11:41;-3.90;99.90
19555;DHT22;9924;50.828;6.440;2023-03-01T03:14:26;-3.90;99.90
19555;DHT22;9924;50.828;6.440;2023-03-01T03:17:11;-3.90;99.90
19555;DHT22;9924;50.828;6.440;2023-03-01T03:19:55;-4.00;99.90
19555;DHT22;9924;50.828;6.440;2023-03-01T03:22:39;-4.00;99.90
19555;DHT22;9924;50.828;6.440;2023-03-01T03:25:25;-3.90;99.90
19555;DHT22;9924;50.828;6.440;2023-03-01T03:28:11;-3.90;99.90
19555;DHT22;9924;50.828;6.440;2023-03-01T03:30:55;-3.80;99.90
19555;DHT22;9924;50.828;6.440;2023-03-01T03:33:40;-3.80;99.90
19555;DHT22;9924;50.828;6.440;2023-03-01T03:36:26;-3.90;99.90
19555;DHT22;9924;50.828;6.440;2023-03-01T03:39:11;-4.00;99.90
19555;DHT22;9924;50.828;6.440;2023-03-01T03:41:56;-4.00;99.90
19555;DHT22;9924;50.828;6.440;2023-03-01T03:44:40;-4.00;99.90
19555;DHT22;9924;50.828;6.440;2023-03-01T03:47:24;-4.00;99.90
19555;DHT22;9924;50.828;6.440;2023-03-01T03:50:13;-4.10;99.90
19555;DHT22;9924;50.828;6.440;2023-03-01T03:53:01;-4.10;99.90
19555;DHT22;9924;50.828;6.440;2023-03-01T03:55:46;-4.10;99.90
19555;DHT22;9924;50.828;6.440;2023-03-01T03:58:32;-4.10;99.90
19555;DHT22;9924;50.828;6.440;2023-03-01T04:01:17;-4.20;99.90
19555;DHT22;9924;50.828;6.440;2023-03-01T04:04:01;-4.20;99.90
19555;DHT22;9924;50.828;6.440;2023-03-01T04:06:48;-4.20;99.90
19555;DHT22;9924;50.828;6.440;2023-03-01T04:09:33;-4.30;99.90
19555;DHT22;9924;50.828;6.440;2023-03-01T04:12:17;-4.30;99.90
19555;DHT22;9924;50.828;6.440;2023-03-01T04:15:07;-4.40;99.90
19555;DHT22;9924;50.828;6.440;2023-03-01T04:17:58;-4.40;99.90
19555;DHT22;9924;50.828;6.440;2023-03-01T04:20:44;-4.40;99.90
19555;DHT22;9924;50.828;6.440;2023-03-01T04:23:29;-4.40;99.90
19555;DHT22;9924;50.828;6.440;2023-03-01T04:26:13;-4.40;99.90
19555;DHT22;9924;50.828;6.440;2023-03-01T04:28:57;-4.50;99.90
19555;DHT22;9924;50.828;6.440;2023-03-01T04:31:42;-4.50;99.90
19555;DHT22;9924;50.828;6.440;2023-03-01T04:34:26;-4.60;99.90
19555;DHT22;9924;50.828;6.440;2023-03-01T04:37:10;-4.60;99.90
19555;DHT22;9924;50.828;6.440;2023-03-01T04:39:55;-4.70;99.90
19555;DHT22;9924;50.828;6.440;2023-03-01T04:42:39;-4.70;99.90
19555;DHT22;9924;50.828;6.440;2023-03-01T04:45:24;-4.70;99.90
19555;DHT22;9924;50.828;6.440;2023-03-01T04:48:09;-4.70;99.90
19555;DHT22;9924;50.828;6.440;2023-03-01T04:50:53;-4.70;99.90
19555;DHT22;9924;50.828;6.440;2023-03-01T04:53:38;-4.70;99.90
19555;DHT22;9924;50.828;6.440;2023-03-01T04:56:23;-4.80;99.90
19555;DHT22;9924;50.828;6.440;2023-03-01T04:59:08;-4.80;99.90
19555;DHT22;9924;50.828;6.440;2023-03-01T05:01:55;-4.80;99.90
19555;DHT22;9924;50.828;6.440;2023-03-01T05:04:40;-4.80;99.90
19555;DHT22;9924;50.828;6.440;2023-03-01T05:07:27;-4.80;99.90
19555;DHT22;9924;50.828;6.440;2023-03-01T05:10:12;-4.80;99.90
19555;DHT22;9924;50.828;6.440;2023-03-01T05:12:57;-4.70;99.90
19555;DHT22;9924;50.828;6.440;2023-03-01T05:15:41;-4.70;99.90
19555;DHT22;9924;50.828;6.440;2023-03-01T05:18:27;-4.70;99.90
19555;DHT22;9924;50.828;6.440;2023-03-01T05:21:13;-4.70;99.90
19555;DHT22;9924;50.828;6.440;2023-03-01T05:24:00;-4.60;99.90
19555;DHT22;9924;50.828;6.440;2023-03-01T05:26:45;-4.70;99.90
19555;DHT22;9924;50.828;6.440;2023-03-01T05:29:32;-4.70;99.90
19555;DHT22;9924;50.828;6.440;2023-03-01T05:32:19;-4.70;99.90
19555;DHT22;9924;50.828;6.440;2023-03-01T05:35:03;-4.80;99.90
19555;DHT22;9924;50.828;6.440;2023-03-01T05:37:48;-4.80;99.90
19555;DHT22;9924;50.828;6.440;2023-03-01T05:40:33;-4.80;99.90
19555;DHT22;9924;50.828;6.440;2023-03-01T05:43:18;-4.80;99.90
19555;DHT22;9924;50.828;6.440;2023-03-01T05:46:02;-4.80;99.90
19555;DHT22;9924;50.828;6.440;2023-03-01T05:48:47;-4.90;99.90
19555;DHT22;9924;50.828;6.440;2023-03-01T05:51:32;-5.00;99.90
19555;DHT22;9924;50.828;6.440;2023-03-01T05:54:20;-5.00;99.90
19555;DHT22;9924;50.828;6.440;2023-03-01T05:57:04;-5.10;99.90
19555;DHT22;9924;50.828;6.440;2023-03-01T05:59:49;-5.10;99.90
19555;DHT22;9924;50.828;6.440;2023-03-01T06:02:34;-5.10;99.90
19555;DHT22;9924;50.828;6.440;2023-03-01T06:05:19;-5.10;99.90
19555;DHT22;9924;50.828;6.440;2023-03-01T06:08:03;-5.00;99.90
19555;DHT22;9924;50.828;6.440;2023-03-01T06:10:48;-5.00;99.90
19555;DHT22;9924;50.828;6.440;2023-03-01T06:13:32;-5.10;99.90
19555;DHT22;9924;50.828;6.440;2023-03-01T06:16:17;-5.10;99.90
19555;DHT22;9924;50.828;6.440;2023-03-01T06:19:01;-5.10;99.90
19555;DHT22;9924;50.828;6.440;2023-03-01T06:21:46;-5.00;99.90
19555;DHT22;9924;50.828;6.440;2023-03-01T06:24:31;-5.00;99.90
19555;DHT22;9924;50.828;6.440;2023-03-01T06:27:15;-5.00;99.90
19555;DHT22;9924;50.828;6.440;2023-03-01T06:30:00;-5.00;99.90
19555;DHT22;9924;50.828;6.440;2023-03-01T06:32:45;-5.10;99.90
19555;DHT22;9924;50.828;6.440;2023-03-01T06:35:31;-5.10;99.90
19555;DHT22;9924;50.828;6.440;2023-03-01T06:38:16;-5.10;99.90
19555;DHT22;9924;50.828;6.440;2023-03-01T06:41:02;-5.10;99.90
19555;DHT22;9924;50.828;6.440;2023-03-01T06:43:47;-5.10;99.90
19555;DHT22;9924;50.828;6.440;2023-03-01T06:46:32;-5.00;99.90
19555;DHT22;9924;50.828;6.440;2023-03-01T06:49:17;-5.00;99.90
19555;DHT22;9924;50.828;6.440;2023-03-01T06:52:01;-5.00;99.90
19555;DHT22;9924;50.828;6.440;2023-03-01T06:54:46;-4.80;99.90
19555;DHT22;9924;50.828;6.440;2023-03-01T06:57:30;-4.60;99.90
19555;DHT22;9924;50.828;6.440;2023-03-01T07:00:15;-4.30;99.90
19555;DHT22;9924;50.828;6.440;2023-03-01T07:03:01;-3.60;99.90
19555;DHT22;9924;50.828;6.440;2023-03-01T07:05:49;-2.80;99.90
19555;DHT22;9924;50.828;6.440;2023-03-01T07:08:33;-2.10;99.90
19555;DHT22;9924;50.828;6.440;2023-03-01T07:11:18;-1.40;99.90
19555;DHT22;9924;50.828;6.440;2023-03-01T07:14:03;-0.60;99.90
19555;DHT22;9924;50.828;6.440;2023-03-01T07:16:47;0.00;99.90
19555;DHT22;9924;50.828;6.440;2023-03-01T07:19:33;0.60;99.90
19555;DHT22;9924;50.828;6.440;2023-03-01T07:22:18;1.00;99.90
19555;DHT22;9924;50.828;6.440;2023-03-01T07:25:03;1.20;99.90
19555;DHT22;9924;50.828;6.440;2023-03-01T07:27:51;1.40;99.90
19555;DHT22;9924;50.828;6.440;2023-03-01T07:30:36;1.60;99.90
19555;DHT22;9924;50.828;6.440;2023-03-01T07:33:21;1.70;99.90
19555;DHT22;9924;50.828;6.440;2023-03-01T07:36:06;2.00;99.90
19555;DHT22;9924;50.828;6.440;2023-03-01T07:38:51;2.40;99.90
19555;DHT22;9924;50.828;6.440;2023-03-01T07:41:36;2.80;99.90
19555;DHT22;9924;50.828;6.440;2023-03-01T07:44:20;3.10;99.90
19555;DHT22;9924;50.828;6.440;2023-03-01T07:47:05;3.40;99.90
19555;DHT22;9924;50.828;6.440;2023-03-01T07:49:49;3.30;99.90
19555;DHT22;9924;50.828;6.440;2023-03-01T07:52:34;3.10;99.90
19555;DHT22;9924;50.828;6.440;2023-03-01T07:55:18;3.00;99.90
19555;DHT22;9924;50.828;6.440;2023-03-01T07:58:04;3.30;99.90
19555;DHT22;9924;50.828;6.440;2023-03-01T08:00:48;3.40;99.90
19555;DHT22;9924;50.828;6.440;2023-03-01T08:03:33;3.60;99.90
19555;DHT22;9924;50.828;6.440;2023-03-01T08:06:18;3.80;99.90
19555;DHT22;9924;50.828;6.440;2023-03-01T08:09:02;4.00;99.90
19555;DHT22;9924;50.828;6.440;2023-03-01T08:11:47;4.00;99.90
19555;DHT22;9924;50.828;6.440;2023-03-01T08:14:32;3.70;99.90
19555;DHT22;9924;50.828;6.440;2023-03-01T08:17:17;3.30;99.90
19555;DHT22;9924;50.828;6.440;2023-03-01T08:20:02;3.00;99.90
19555;DHT22;9924;50.828;6.440;2023-03-01T08:22:48;2.80;99.90
19555;DHT22;9924;50.828;6.440;2023-03-01T08:25:32;2.30;99.90
19555;DHT22;9924;50.828;6.440;2023-03-01T08:28:16;2.10;99.90
19555;DHT22;9924;50.828;6.440;2023-03-01T08:31:01;2.10;99.90
19555;DHT22;9924;50.828;6.440;2023-03-01T08:33:47;1.70;99.90
19555;DHT22;9924;50.828;6.440;2023-03-01T08:36:41;1.30;99.90
19555;DHT22;9924;50.828;6.440;2023-03-01T08:39:26;1.00;99.90
19555;DHT22;9924;50.828;6.440;2023-03-01T08:42:10;0.80;99.90
19555;DHT22;9924;50.828;6.440;2023-03-01T08:44:55;0.80;99.90
19555;DHT22;9924;50.828;6.440;2023-03-01T08:47:41;0.90;99.90
19555;DHT22;9924;50.828;6.440;2023-03-01T08:50:25;1.00;99.90
19555;DHT22;9924;50.828;6.440;2023-03-01T08:53:10;1.10;99.90
19555;DHT22;9924;50.828;6.440;2023-03-01T08:55:54;1.10;99.90
19555;DHT22;9924;50.828;6.440;2023-03-01T08:58:38;1.30;99.90
19555;DHT22;9924;50.828;6.440;2023-03-01T09:01:24;1.40;99.90
19555;DHT22;9924;50.828;6.440;2023-03-01T09:04:08;1.30;99.90
19555;DHT22;9924;50.828;6.440;2023-03-01T09:06:53;1.30;99.90
19555;DHT22;9924;50.828;6.440;2023-03-01T09:09:37;1.20;99.90
19555;DHT22;9924;50.828;6.440;2023-03-01T09:12:22;1.20;99.90
19555;DHT22;9924;50.828;6.440;2023-03-01T09:15:07;1.20;99.90
19555;DHT22;9924;50.828;6.440;2023-03-01T09:17:51;1.10;99.90
19555;DHT22;9924;50.828;6.440;2023-03-01T09:20:36;1.00;99.90
19555;DHT22;9924;50.828;6.440;2023-03-01T09:23:21;1.10;99.90
19555;DHT22;9924;50.828;6.440;2023-03-01T09:26:06;1.10;99.90
19555;DHT22;9924;50.828;6.440;2023-03-01T09:28:55;1.20;99.90
19555;DHT22;9924;50.828;6.440;2023-03-01T09:31:40;1.60;99.90
19555;DHT22;9924;50.828;6.440;2023-03-01T09:34:25;1.70;99.90
19555;DHT22;9924;50.828;6.440;2023-03-01T09:37:09;2.00;99.90
19555;DHT22;9924;50.828;6.440;2023-03-01T09:39:54;2.40;99.90
19555;DHT22;9924;50.828;6.440;2023-03-01T09:42:57;2.80;99.90
19555;DHT22;9924;50.828;6.440;2023-03-01T09:45:46;3.20;99.90
19555;DHT22;9924;50.828;6.440;2023-03-01T09:49:01;3.70;99.90
19555;DHT22;9924;50.828;6.440;2023-03-01T09:54:53;4.20;99.90
19555;DHT22;9924;50.828;6.440;2023-03-01T09:57:50;4.20;99.90
19555;DHT22;9924;50.828;6.440;2023-03-01T10:00:47;4.50;99.90
19555;DHT22;9924;50.828;6.440;2023-03-01T10:04:09;4.50;99.90
19555;DHT22;9924;50.828;6.440;2023-03-01T10:09:54;5.20;99.90
19555;DHT22;9924;50.828;6.440;2023-03-01T10:12:40;5.50;99.90
19555;DHT22;9924;50.828;6.440;2023-03-01T10:15:39;5.80;99.90
19555;DHT22;9924;50.828;6.440;2023-03-01T10:18:28;6.00;99.90
19555;DHT22;9924;50.828;6.440;2023-03-01T10:21:17;6.10;99.90
19555;DHT22;9924;50.828;6.440;2023-03-01T10:24:14;6.20;99.90
19555;DHT22;9924;50.828;6.440;2023-03-01T10:27:04;6.50;99.90
19555;DHT22;9924;50.828;6.440;2023-03-01T10:30:37;6.70;99.90
19555;DHT22;9924;50.828;6.440;2023-03-01T10:33:32;6.90;99.90
19555;DHT22;9924;50.828;6.440;2023-03-01T10:36:17;6.70;99.90
19555;DHT22;9924;50.828;6.440;2023-03-01T10:39:11;6.70;99.90
19555;DHT22;9924;50.828;6.440;2023-03-01T10:42:09;7.10;99.90
19555;DHT22;9924;50.828;6.440;2023-03-01T10:45:34;7.00;99.90
19555;DHT22;9924;50.828;6.440;2023-03-01T10:48:21;7.30;99.90
19555;DHT22;9924;50.828;6.440;2023-03-01T10:51:12;7.70;99.90
19555;DHT22;9924;50.828;6.440;2023-03-01T10:53:58;7.60;99.90
19555;DHT22;9924;50.828;6.440;2023-03-01T10:56:52;7.70;99.90
19555;DHT22;9924;50.828;6.440;2023-03-01T10:59:38;7.70;99.90
19555;DHT22;9924;50.828;6.440;2023-03-01T11:02:30;8.00;99.90
19555;DHT22;9924;50.828;6.440;2023-03-01T11:08:03;8.40;99.90
19555;DHT22;9924;50.828;6.440;2023-03-01T11:10:48;8.40;99.90
19555;DHT22;9924;50.828;6.440;2023-03-01T11:13:33;8.00;99.90
19555;DHT22;9924;50.828;6.440;2023-03-01T11:19:20;8.00;99.90
19555;DHT22;9924;50.828;6.440;2023-03-01T11:22:12;8.20;99.90
19555;DHT22;9924;50.828;6.440;2023-03-01T11:24:57;8.60;99.90
19555;DHT22;9924;50.828;6.440;2023-03-01T11:27:44;9.00;99.90
19555;DHT22;9924;50.828;6.440;2023-03-01T11:30:52;9.40;99.90
19555;DHT22;9924;50.828;6.440;2023-03-01T11:33:55;9.80;99.90
19555;DHT22;9924;50.828;6.440;2023-03-01T11:36:52;9.90;99.90
19555;DHT22;9924;50.828;6.440;2023-03-01T11:39:45;10.20;99.90
19555;DHT22;9924;50.828;6.440;2023-03-01T11:45:43;9.90;99.90
19555;DHT22;9924;50.828;6.440;2023-03-01T12:07:37;10.90;99.80
19555;DHT22;9924;50.828;6.440;2023-03-01T12:48:31;11.80;98.30
19555;DHT22;9924;50.828;6.440;2023-03-01T12:51:26;12.60;96.70
19555;DHT22;9924;50.828;6.440;2023-03-01T12:54:22;12.50;96.50
19555;DHT22;9924;50.828;6.440;2023-03-01T12:57:18;12.20;96.90
19555;DHT22;9924;50.828;6.440;2023-03-01T13:00:22;12.30;96.20
19555;DHT22;9924;50.828;6.440;2023-03-01T13:03:14;12.20;96.20
19555;DHT22;9924;50.828;6.440;2023-03-01T13:06:19;12.00;96.60
19555;DHT22;9924;50.828;6.440;2023-03-01T13:09:35;11.70;97.30
19555;DHT22;9924;50.828;6.440;2023-03-01T13:13:00;12.10;96.00
19555;DHT22;9924;50.828;6.440;2023-03-01T13:15:45;12.10;95.50
19555;DHT22;9924;50.828;6.440;2023-03-01T13:18:32;11.90;95.70
19555;DHT22;9924;50.828;6.440;2023-03-01T13:21:30;11.90;95.50
19555;DHT22;9924;50.828;6.440;2023-03-01T13:27:21;11.70;95.80
19555;DHT22;9924;50.828;6.440;2023-03-01T13:39:32;11.90;95.30
19555;DHT22;9924;50.828;6.440;2023-03-01T13:42:42;12.00;94.90
19555;DHT22;9924;50.828;6.440;2023-03-01T13:45:53;11.50;96.20
19555;DHT22;9924;50.828;6.440;2023-03-01T13:48:39;12.30;94.00
19555;DHT22;9924;50.828;6.440;2023-03-01T13:51:25;12.60;93.20
19555;DHT22;9924;50.828;6.440;2023-03-01T13:54:12;12.50;93.60
19555;DHT22;9924;50.828;6.440;2023-03-01T13:56:59;12.60;93.50
19555;DHT22;9924;50.828;6.440;2023-03-01T13:59:48;12.10;94.70
19555;DHT22;9924;50.828;6.440;2023-03-01T14:02:33;12.30;94.40
19555;DHT22;9924;50.828;6.440;2023-03-01T14:05:18;12.40;94.10
19555;DHT22;9924;50.828;6.440;2023-03-01T14:08:19;12.40;94.40
19555;DHT22;9924;50.828;6.440;2023-03-01T14:14:16;12.50;94.30
19555;DHT22;9924;50.828;6.440;2023-03-01T14:20:18;12.10;93.80
19555;DHT22;9924;50.828;6.440;2023-03-01T14:23:13;11.80;94.20
19555;DHT22;9924;50.828;6.440;2023-03-01T14:25:58;11.60;94.30
19555;DHT22;9924;50.828;6.440;2023-03-01T14:28:42;12.00;94.20
19555;DHT22;9924;50.828;6.440;2023-03-01T14:31:39;12.00;94.60
19555;DHT22;9924;50.828;6.440;2023-03-01T14:34:25;11.90;94.40
19555;DHT22;9924;50.828;6.440;2023-03-01T14:40:03;11.80;94.70
19555;DHT22;9924;50.828;6.440;2023-03-01T14:42:48;11.90;94.70
19555;DHT22;9924;50.828;6.440;2023-03-01T14:45:33;11.90;94.50
19555;DHT22;9924;50.828;6.440;2023-03-01T14:48:18;11.30;95.20
19555;DHT22;9924;50.828;6.440;2023-03-01T14:51:05;10.60;95.70
19555;DHT22;9924;50.828;6.440;2023-03-01T14:53:50;9.80;96.80
19555;DHT22;9924;50.828;6.440;2023-03-01T14:56:45;9.10;97.80
19555;DHT22;9924;50.828;6.440;2023-03-01T14:59:33;8.80;98.60
19555;DHT22;9924;50.828;6.440;2023-03-01T15:02:19;8.80;98.70
19555;DHT22;9924;50.828;6.440;2023-03-01T15:05:05;8.90;98.50
19555;DHT22;9924;50.828;6.440;2023-03-01T15:07:51;9.10;98.10
19555;DHT22;9924;50.828;6.440;2023-03-01T15:10:36;9.20;98.30
19555;DHT22;9924;50.828;6.440;2023-03-01T15:13:23;9.50;98.00
19555;DHT22;9924;50.828;6.440;2023-03-01T15:16:10;9.50;98.00
19555;DHT22;9924;50.828;6.440;2023-03-01T15:19:00;9.90;97.60
19555;DHT22;9924;50.828;6.440;2023-03-01T15:21:49;10.30;97.10
19555;DHT22;9924;50.828;6.440;2023-03-01T15:24:33;10.20;97.20
19555;DHT22;9924;50.828;6.440;2023-03-01T15:27:23;9.90;97.80
19555;DHT22;9924;50.828;6.440;2023-03-01T15:30:21;9.30;98.60
19555;DHT22;9924;50.828;6.440;2023-03-01T15:36:41;9.00;99.10
19555;DHT22;9924;50.828;6.440;2023-03-01T15:39:38;8.70;99.20
19555;DHT22;9924;50.828;6.440;2023-03-01T15:48:03;7.90;99.90
19555;DHT22;9924;50.828;6.440;2023-03-01T15:50:55;7.90;99.90
19555;DHT22;9924;50.828;6.440;2023-03-01T15:53:41;8.00;99.90
19555;DHT22;9924;50.828;6.440;2023-03-01T15:56:26;8.30;99.90
19555;DHT22;9924;50.828;6.440;2023-03-01T15:59:11;8.30;99.90
19555;DHT22;9924;50.828;6.440;2023-03-01T16:01:57;8.50;99.90
19555;DHT22;9924;50.828;6.440;2023-03-01T16:04:42;8.50;99.90
19555;DHT22;9924;50.828;6.440;2023-03-01T16:07:26;8.60;99.90
19555;DHT22;9924;50.828;6.440;2023-03-01T16:10:11;8.60;99.90
19555;DHT22;9924;50.828;6.440;2023-03-01T16:12:57;8.40;99.90
19555;DHT22;9924;50.828;6.440;2023-03-01T16:15:42;8.10;99.90
19555;DHT22;9924;50.828;6.440;2023-03-01T16:18:30;7.90;99.90
19555;DHT22;9924;50.828;6.440;2023-03-01T16:21:19;7.60;99.90
19555;DHT22;9924;50.828;6.440;2023-03-01T16:24:04;7.40;99.90
19555;DHT22;9924;50.828;6.440;2023-03-01T16:26:49;7.40;99.90
19555;DHT22;9924;50.828;6.440;2023-03-01T16:29:34;7.40;99.90
19555;DHT22;9924;50.828;6.440;2023-03-01T16:32:18;7.30;99.90
19555;DHT22;9924;50.828;6.440;2023-03-01T16:35:03;7.20;99.90
19555;DHT22;9924;50.828;6.440;2023-03-01T16:37:48;7.00;99.90
19555;DHT22;9924;50.828;6.440;2023-03-01T16:40:33;6.70;99.90
19555;DHT22;9924;50.828;6.440;2023-03-01T16:43:18;6.60;99.90
19555;DHT22;9924;50.828;6.440;2023-03-01T16:46:25;6.40;99.90
19555;DHT22;9924;50.828;6.440;2023-03-01T16:49:10;6.10;99.90
19555;DHT22;9924;50.828;6.440;2023-03-01T16:51:54;5.90;99.90
19555;DHT22;9924;50.828;6.440;2023-03-01T16:54:39;5.80;99.90
19555;DHT22;9924;50.828;6.440;2023-03-01T16:57:25;5.80;99.90
19555;DHT22;9924;50.828;6.440;2023-03-01T17:00:11;5.70;99.90
19555;DHT22;9924;50.828;6.440;2023-03-01T17:02:56;5.60;99.90
19555;DHT22;9924;50.828;6.440;2023-03-01T17:05:41;5.60;99.90
19555;DHT22;9924;50.828;6.440;2023-03-01T17:08:25;5.50;99.90
19555;DHT22;9924;50.828;6.440;2023-03-01T17:11:17;5.40;99.90
19555;DHT22;9924;50.828;6.440;2023-03-01T17:14:01;5.40;99.90
19555;DHT22;9924;50.828;6.440;2023-03-01T17:16:46;5.30;99.90
19555;DHT22;9924;50.828;6.440;2023-03-01T17:19:30;5.30;99.90
19555;DHT22;9924;50.828;6.440;2023-03-01T17:22:17;5.20;99.90
19555;DHT22;9924;50.828;6.440;2023-03-01T17:25:01;5.10;99.90
19555;DHT22;9924;50.828;6.440;2023-03-01T17:27:46;5.00;99.90
19555;DHT22;9924;50.828;6.440;2023-03-01T17:30:30;4.90;99.90
19555;DHT22;9924;50.828;6.440;2023-03-01T17:33:15;4.90;99.90
19555;DHT22;9924;50.828;6.440;2023-03-01T17:36:00;4.70;99.90
19555;DHT22;9924;50.828;6.440;2023-03-01T17:38:45;4.60;99.90
19555;DHT22;9924;50.828;6.440;2023-03-01T17:41:30;4.40;99.90
19555;DHT22;9924;50.828;6.440;2023-03-01T17:44:15;4.30;99.90
19555;DHT22;9924;50.828;6.440;2023-03-01T17:47:00;4.10;99.90
19555;DHT22;9924;50.828;6.440;2023-03-01T17:49:45;4.10;99.90
19555;DHT22;9924;50.828;6.440;2023-03-01T17:52:30;4.00;99.90
19555;DHT22;9924;50.828;6.440;2023-03-01T17:55:14;3.90;99.90
19555;DHT22;9924;50.828;6.440;2023-03-01T17:57:59;3.90;99.90
19555;DHT22;9924;50.828;6.440;2023-03-01T18:00:43;3.80;99.90
19555;DHT22;9924;50.828;6.440;2023-03-01T18:03:28;3.70;99.90
19555;DHT22;9924;50.828;6.440;2023-03-01T18:06:23;3.60;99.90
19555;DHT22;9924;50.828;6.440;2023-03-01T18:09:08;3.50;99.90
19555;DHT22;9924;50.828;6.440;2023-03-01T18:11:54;3.40;99.90
19555;DHT22;9924;50.828;6.440;2023-03-01T18:14:39;3.30;99.90
19555;DHT22;9924;50.828;6.440;2023-03-01T18:17:24;3.20;99.90
19555;DHT22;9924;50.828;6.440;2023-03-01T18:20:09;3.10;99.90
19555;DHT22;9924;50.828;6.440;2023-03-01T18:22:54;3.20;99.90
19555;DHT22;9924;50.828;6.440;2023-03-01T18:25:38;3.20;99.90
19555;DHT22;9924;50.828;6.440;2023-03-01T18:28:23;3.20;99.90
19555;DHT22;9924;50.828;6.440;2023-03-01T18:31:09;3.20;99.90
19555;DHT22;9924;50.828;6.440;2023-03-01T18:33:54;3.20;99.90
19555;DHT22;9924;50.828;6.440;2023-03-01T18:36:38;3.10;99.90
19555;DHT22;9924;50.828;6.440;2023-03-01T18:39:23;3.10;99.90
19555;DHT22;9924;50.828;6.440;2023-03-01T18:42:08;3.20;99.90
19555;DHT22;9924;50.828;6.440;2023-03-01T18:44:52;3.20;99.90
19555;DHT22;9924;50.828;6.440;2023-03-01T18:47:37;3.20;99.90
19555;DHT22;9924;50.828;6.440;2023-03-01T18:50:22;3.20;99.90
19555;DHT22;9924;50.828;6.440;2023-03-01T18:53:07;3.20;99.90
19555;DHT22;9924;50.828;6.440;2023-03-01T18:55:52;3.10;99.90
19555;DHT22;9924;50.828;6.440;2023-03-01T18:58:42;3.10;99.90
19555;DHT22;9924;50.828;6.440;2023-03-01T19:01:28;3.10;99.90
19555;DHT22;9924;50.828;6.440;2023-03-01T19:04:13;3.20;99.90
19555;DHT22;9924;50.828;6.440;2023-03-01T19:06:58;3.20;99.90
19555;DHT22;9924;50.828;6.440;2023-03-01T19:09:45;3.30;99.90
19555;DHT22;9924;50.828;6.440;2023-03-01T19:12:29;3.30;99.90
19555;DHT22;9924;50.828;6.440;2023-03-01T19:15:14;3.30;99.90
19555;DHT22;9924;50.828;6.440;2023-03-01T19:18:02;3.30;99.90
19555;DHT22;9924;50.828;6.440;2023-03-01T19:20:56;3.30;99.90
19555;DHT22;9924;50.828;6.440;2023-03-01T19:23:41;3.30;99.90
19555;DHT22;9924;50.828;6.440;2023-03-01T19:26:27;3.30;99.90
19555;DHT22;9924;50.828;6.440;2023-03-01T19:29:12;3.20;99.90
19555;DHT22;9924;50.828;6.440;2023-03-01T19:31:57;3.20;99.90
19555;DHT22;9924;50.828;6.440;2023-03-01T19:34:41;3.20;99.90
19555;DHT22;9924;50.828;6.440;2023-03-01T19:37:27;3.20;99.90
19555;DHT22;9924;50.828;6.440;2023-03-01T19:40:11;3.10;99.90
19555;DHT22;9924;50.828;6.440;2023-03-01T19:42:56;3.10;99.90
19555;DHT22;9924;50.828;6.440;2023-03-01T19:45:42;3.00;99.90
19555;DHT22;9924;50.828;6.440;2023-03-01T19:48:26;3.00;99.90
19555;DHT22;9924;50.828;6.440;2023-03-01T19:51:12;3.00;99.90
19555;DHT22;9924;50.828;6.440;2023-03-01T19:53:56;2.90;99.90